Terminal Aerodrome Forecast
Issued by NWS Mt. Holly, NJ

Home | Current Version | Previous Version | Text Only | Print | Product List | Glossary On
Versions: 1 2 3 4 5 6 7 8 9 10 11 12 13 14 15
000
FTUS41 KPHI 040538
TAFRDG
TAF
KRDG 040538Z 0406/0506 VRB03KT P6SM BKN250
      TEMPO 0406/0410 4SM BR
     FM041000 03004KT P6SM SCT080
     FM041400 08006KT P6SM BKN050
      TEMPO 0418/0422 -SHRA
     FM050300 09004KT P6SM SCT050 BKN100=

USA.gov is the U.S. government's official web portal to all federal, state and local government web resources and services.